Time;durP1;ratioP1;P1;durP2;ratioP2;P2;SDS_P1;SDS_P2;PMS_P1;PMS_P2;Temp;Humidity;BMP_temperature;BMP_pressure;BME280_temperature;BME280_humidity;BME280_pressure;Samples;Min_cycle;Max_cycle;Signal;HPM_P1;HPM_P2
2021/12/16 00:02:50;;;;;;;14.93;13.73;;;;;;;6.51;90.38;100451.63;5005833;28;102684;-67
2021/12/16 00:05:33;;;;;;;15.18;13.88;;;;;;;6.77;88.49;100459.59;5007327;28;102717;-64
2021/12/16 00:08:06;;;;;;;14.93;13.63;;;;;;;6.83;87.28;100467.31;5006130;28;103293;-67
2021/12/16 00:10:40;;;;;;;15.60;14.30;;;;;;;6.81;88.11;100461.25;5006708;28;102949;-67
2021/12/16 00:30:02;;;;;;;15.33;14.03;;;;;;;6.92;87.87;100443.41;5002779;28;102819;-67
2021/12/16 00:32:46;;;;;;;15.88;14.48;;;;;;;6.77;88.39;100449.97;5011444;28;103167;-64
2021/12/16 00:35:16;;;;;;;15.43;14.15;;;;;;;6.88;87.81;100447.88;5012781;27;102609;-64
2021/12/16 00:37:45;;;;;;;14.98;13.70;;;;;;;7.08;86.83;100449.03;5005662;27;103920;-64
2021/12/16 00:40:15;;;;;;;14.88;13.68;;;;;;;6.99;87.30;100448.41;5012087;28;103259;-64
2021/12/16 00:42:50;;;;;;;14.48;13.18;;;;;;;7.10;87.27;100449.88;5007656;28;103205;-64
2021/12/16 00:48:21;;;;;;;16.42;14.93;;;;;;;6.56;88.73;100449.75;5007610;28;103990;-64
2021/12/16 00:56:24;;;;;;;16.75;15.35;;;;;;;6.88;87.65;100450.50;5011666;28;102718;-64
2021/12/16 00:58:57;;;;;;;15.55;14.25;;;;;;;7.02;87.11;100457.16;5010929;28;103743;-64
2021/12/16 01:01:39;;;;;;;16.20;14.85;;;;;;;6.52;88.29;100453.34;5010766;28;103277;-64
2021/12/16 01:04:40;;;;;;;14.38;13.18;;;;;;;6.71;88.79;100449.31;5006468;28;105037;-64
2021/12/16 01:07:24;;;;;;;14.45;13.25;;;;;;;6.78;88.40;100461.34;5007992;28;102773;-64
2021/12/16 01:35:24;;;;;;;14.47;13.30;;;;;;;6.65;89.77;100465.25;5008350;28;103607;-64
2021/12/16 01:38:25;;;;;;;15.68;14.30;;;;;;;6.55;88.77;100463.75;5010418;28;103159;-67
2021/12/16 01:46:45;;;;;;;13.68;12.57;;;;;;;7.07;86.90;100469.25;4980120;28;104480;-67
2021/12/16 01:49:39;;;;;;;13.23;12.13;;;;;;;7.24;85.58;100460.84;5006227;28;103202;-67
2021/12/16 01:52:32;;;;;;;13.18;12.18;;;;;;;7.27;85.31;100466.84;5007835;28;103094;-67
2021/12/16 01:55:09;;;;;;;12.88;11.88;;;;;;;7.20;85.50;100470.56;5009198;28;102687;-67
2021/12/16 01:57:42;;;;;;;13.20;12.20;;;;;;;7.14;84.84;100478.66;5004315;28;103913;-67
2021/12/16 02:00:15;;;;;;;14.77;13.60;;;;;;;7.08;85.54;100476.19;5007103;28;103537;-67
2021/12/16 02:02:50;;;;;;;11.60;10.68;;;;;;;7.32;85.09;100464.94;5006931;27;102731;-67
2021/12/16 02:05:32;;;;;;;11.93;10.93;;;;;;;7.39;84.60;100465.59;5007387;28;103153;-67
2021/12/16 02:08:23;;;;;;;13.48;12.38;;;;;;;7.31;83.46;100462.34;5008163;28;103245;-67
2021/12/16 02:11:06;;;;;;;13.00;11.98;;;;;;;7.24;84.61;100460.84;5010544;28;105390;-67
2021/12/16 02:27:33;;;;;;;15.38;14.15;;;;;;;7.30;84.44;100450.09;5007197;28;103125;-67
2021/12/16 02:32:57;;;;;;;13.77;12.65;;;;;;;7.42;83.46;100444.47;5007833;28;103195;-67
2021/12/16 02:35:33;;;;;;;16.37;15.07;;;;;;;7.26;84.67;100449.34;5010874;28;102942;-67
2021/12/16 02:38:05;;;;;;;14.73;13.52;;;;;;;7.31;84.88;100446.56;5011240;28;102695;-67
2021/12/16 02:40:37;;;;;;;16.63;15.23;;;;;;;7.24;84.82;100445.88;5011064;28;105199;-67
2021/12/16 02:43:21;;;;;;;13.65;12.55;;;;;;;7.41;84.49;100443.59;5007515;28;103082;-68
2021/12/16 02:48:35;;;;;;;16.17;14.80;;;;;;;7.36;83.63;100445.50;5012805;28;102764;-67
2021/12/16 02:51:09;;;;;;;14.00;12.90;;;;;;;7.42;84.18;100450.59;5008050;28;103531;-67
2021/12/16 02:53:42;;;;;;;13.38;12.27;;;;;;;7.58;83.58;100441.28;5008796;28;103183;-67
2021/12/16 02:56:11;;;;;;;16.67;15.20;;;;;;;7.40;83.08;100451.53;5010011;28;102794;-64
2021/12/16 02:58:42;;;;;;;14.10;13.00;;;;;;;7.55;83.04;100441.38;5011737;28;102777;-64
2021/12/16 03:01:13;;;;;;;16.00;14.70;;;;;;;7.35;83.79;100459.59;5006458;27;104377;-64
2021/12/16 03:03:44;;;;;;;16.70;15.27;;;;;;;7.23;84.09;100446.81;5008784;28;103538;-64
2021/12/16 03:06:15;;;;;;;16.60;15.25;;;;;;;7.33;84.37;100447.38;5022579;27;102702;-64
2021/12/16 03:08:45;;;;;;;15.87;14.57;;;;;;;7.44;84.17;100453.16;5007705;28;103871;-64
2021/12/16 03:11:22;;;;;;;15.20;13.97;;;;;;;7.49;83.39;100454.72;5005955;28;103341;-64
2021/12/16 03:14:15;;;;;;;13.90;12.80;;;;;;;7.66;82.79;100442.81;5003867;27;103171;-66
2021/12/16 03:16:55;;;;;;;14.23;13.10;;;;;;;7.68;83.05;100446.25;5009339;28;102861;-64
2021/12/16 03:19:31;;;;;;;15.90;14.60;;;;;;;7.57;82.54;100455.38;5005768;28;102879;-64
2021/12/16 03:22:03;;;;;;;15.10;13.90;;;;;;;7.41;84.38;100454.09;5002368;28;104285;-67
2021/12/16 03:25:03;;;;;;;14.02;12.93;;;;;;;7.57;82.81;100452.72;5006598;28;103522;-67
2021/12/16 03:28:16;;;;;;;14.88;13.68;;;;;;;7.67;82.51;100439.25;5006672;28;103040;-67
2021/12/16 03:31:00;;;;;;;17.77;16.23;;;;;;;7.30;83.20;100439.56;5006477;28;103795;-67
2021/12/16 03:36:37;;;;;;;16.80;15.50;;;;;;;7.26;84.34;100441.47;5004274;28;103288;-67
2021/12/16 03:39:09;;;;;;;15.52;14.27;;;;;;;7.50;83.79;100450.31;5003303;28;102675;-67
2021/12/16 03:41:41;;;;;;;15.98;14.75;;;;;;;7.44;83.07;100453.16;5005526;28;104174;-67
2021/12/16 03:44:14;;;;;;;16.00;14.70;;;;;;;7.35;84.99;100454.34;5005695;28;104759;-67
2021/12/16 03:46:49;;;;;;;14.82;13.63;;;;;;;7.57;83.91;100444.84;5005371;28;103168;-67
2021/12/16 03:49:25;;;;;;;16.73;15.32;;;;;;;7.53;83.20;100464.25;5005005;28;102866;-67
2021/12/16 03:51:59;;;;;;;14.30;13.20;;;;;;;7.66;83.04;100455.97;5006671;28;104393;-67
2021/12/16 03:54:34;;;;;;;16.57;15.17;;;;;;;7.69;82.80;100445.34;5005834;28;103255;-67
2021/12/16 03:57:08;;;;;;;17.98;16.48;;;;;;;7.13;84.04;100462.94;5007176;28;102958;-67
2021/12/16 03:59:39;;;;;;;16.92;15.52;;;;;;;7.00;85.74;100462.44;5006015;28;102815;-67
2021/12/16 04:02:35;;;;;;;19.02;17.42;;;;;;;6.92;85.63;100451.28;5001918;28;103264;-67
2021/12/16 04:05:06;;;;;;;18.67;17.08;;;;;;;6.68;88.33;100454.66;5005955;28;104265;-67
2021/12/16 04:07:41;;;;;;;15.25;14.05;;;;;;;7.22;86.25;100458.22;5006897;28;103244;-67
2021/12/16 04:10:31;;;;;;;15.52;14.15;;;;;;;7.37;85.44;100456.91;5007504;28;102719;-67
2021/12/16 04:13:04;;;;;;;17.63;16.13;;;;;;;7.11;86.11;100467.34;5007096;28;104987;-67
2021/12/16 04:15:36;;;;;;;15.95;14.65;;;;;;;7.24;84.69;100466.09;5003777;28;104249;-67
2021/12/16 04:18:04;;;;;;;16.33;14.93;;;;;;;7.20;85.01;100470.56;5006215;28;102936;-67
2021/12/16 04:20:33;;;;;;;17.05;15.57;;;;;;;7.22;84.08;100475.78;5006525;28;102742;-67
2021/12/16 04:23:06;;;;;;;16.33;14.95;;;;;;;7.25;84.29;100479.16;5007371;28;103788;-67
2021/12/16 04:25:37;;;;;;;18.77;17.27;;;;;;;6.80;85.81;100480.53;5009141;27;103318;-67
2021/12/16 04:28:13;;;;;;;18.92;17.23;;;;;;;6.79;86.16;100470.97;5008320;28;103187;-67
2021/12/16 04:30:43;;;;;;;17.20;15.70;;;;;;;7.04;85.55;100471.94;5010098;28;102811;-67
2021/12/16 04:33:11;;;;;;;18.73;17.23;;;;;;;6.82;86.01;100468.25;5012657;28;103248;-67
2021/12/16 04:35:41;;;;;;;17.55;16.05;;;;;;;6.92;86.24;100467.06;5010272;28;105608;-67
2021/12/16 04:38:11;;;;;;;19.33;17.63;;;;;;;6.64;86.45;100463.50;5008613;28;103210;-67
2021/12/16 04:40:43;;;;;;;19.83;18.03;;;;;;;6.67;86.84;100458.16;5012535;28;102960;-67
2021/12/16 04:43:20;;;;;;;19.88;18.13;;;;;;;6.64;86.53;100460.88;5012676;28;102736;-67
2021/12/16 04:46:12;;;;;;;20.50;18.63;;;;;;;6.28;88.30;100458.41;5008907;28;103464;-67
2021/12/16 04:48:42;;;;;;;20.40;18.60;;;;;;;6.35;88.46;100461.69;5013929;28;102709;-67
2021/12/16 04:51:21;;;;;;;20.35;18.55;;;;;;;6.45;88.68;100457.06;5013134;28;102680;-67
2021/12/16 04:53:51;;;;;;;19.15;17.48;;;;;;;6.73;86.26;100464.13;5013840;28;102682;-67
2021/12/16 04:56:20;;;;;;;17.52;16.02;;;;;;;6.98;85.99;100472.13;5006159;28;104429;-65
2021/12/16 04:59:02;;;;;;;18.92;17.33;;;;;;;7.17;84.87;100470.66;5009204;28;103240;-68
2021/12/16 05:01:30;;;;;;;20.57;18.77;;;;;;;6.89;84.79;100477.66;5008743;28;103268;-68
2021/12/16 05:03:58;;;;;;;20.10;18.30;;;;;;;6.98;85.05;100472.13;5007114;28;102904;-68
2021/12/16 05:06:27;;;;;;;17.58;16.10;;;;;;;7.17;84.74;100473.28;5005194;28;103226;-68
2021/12/16 05:08:56;;;;;;;20.63;18.80;;;;;;;7.02;84.63;100478.16;5004836;28;105542;-68
2021/12/16 05:11:34;;;;;;;20.05;18.35;;;;;;;7.20;84.89;100486.34;5011506;28;103826;-68
2021/12/16 05:14:07;;;;;;;20.63;18.80;;;;;;;7.08;85.11;100494.59;5012848;28;104256;-68
2021/12/16 05:16:40;;;;;;;20.60;18.80;;;;;;;7.32;84.19;100498.25;5008047;28;102720;-68
2021/12/16 05:19:08;;;;;;;18.73;17.13;;;;;;;7.41;83.62;100498.81;5007815;28;103431;-68
2021/12/16 05:21:46;;;;;;;21.75;19.85;;;;;;;7.31;83.57;100494.75;5008486;28;103345;-68
2021/12/16 05:24:35;;;;;;;20.13;18.40;;;;;;;7.42;83.56;100503.19;5005368;27;102758;-68
2021/12/16 05:27:13;;;;;;;20.27;18.38;;;;;;;7.49;82.98;100499.44;5007834;28;105425;-68
2021/12/16 05:29:45;;;;;;;19.75;18.05;;;;;;;7.56;82.12;100511.50;5008958;28;103186;-68
2021/12/16 05:32:14;;;;;;;15.40;14.10;;;;;;;7.64;82.29;100503.34;5007133;28;102678;-68
2021/12/16 05:34:42;;;;;;;15.68;14.30;;;;;;;7.74;82.10;100506.56;5006772;28;102809;-68
2021/12/16 05:37:11;;;;;;;23.23;21.03;;;;;;;7.21;82.26;100522.25;5009038;28;103173;-64
2021/12/16 05:39:42;;;;;;;22.03;20.07;;;;;;;7.00;85.47;100520.25;5004732;28;103539;-64
2021/12/16 05:42:40;;;;;;;20.57;18.77;;;;;;;7.32;83.69;100520.16;4994142;28;103522;-64
2021/12/16 05:45:12;;;;;;;17.03;15.53;;;;;;;7.59;83.17;100524.56;5007367;28;102963;-64
2021/12/16 05:47:41;;;;;;;23.33;21.23;;;;;;;6.35;87.10;100530.81;5006958;28;103336;-64
2021/12/16 05:50:10;;;;;;;18.70;16.90;;;;;;;6.91;87.48;100533.66;5005290;28;104188;-64
2021/12/16 05:52:40;;;;;;;19.35;17.65;;;;;;;7.24;84.89;100534.44;5008097;28;102795;-64
2021/12/16 05:55:10;;;;;;;17.55;15.98;;;;;;;7.42;84.72;100533.88;5007023;28;102781;-64
2021/12/16 05:57:57;;;;;;;21.17;19.27;;;;;;;6.95;85.84;100536.16;5006359;28;103492;-64
2021/12/16 06:00:29;;;;;;;24.83;22.42;;;;;;;6.53;86.86;100542.59;5003858;28;103272;-64
2021/12/16 06:03:00;;;;;;;18.63;16.92;;;;;;;7.10;86.25;100548.00;5007862;28;102807;-64
2021/12/16 06:09:32;;;;;;;22.75;20.75;;;;;;;7.22;83.84;100546.75;5007667;28;103106;-64
2021/12/16 06:12:01;;;;;;;23.33;21.23;;;;;;;6.38;88.91;100546.50;5003007;28;103365;-68
2021/12/16 06:14:47;;;;;;;19.05;17.35;;;;;;;7.06;87.26;100548.13;5005275;27;102718;-64
2021/12/16 06:28:18;;;;;;;21.05;18.95;;;;;;;7.14;84.97;100547.00;5008865;28;102674;-64
2021/12/16 06:30:46;;;;;;;18.75;17.05;;;;;;;7.12;85.34;100540.94;5007856;27;103252;-68
2021/12/16 06:33:19;;;;;;;19.13;17.33;;;;;;;7.06;84.97;100546.34;5009632;28;103212;-64
2021/12/16 06:35:47;;;;;;;18.90;17.10;;;;;;;7.13;84.98;100547.03;5004868;28;102565;-65
2021/12/16 06:38:15;;;;;;;17.90;16.20;;;;;;;7.21;84.33;100540.66;5011862;28;102915;-68
2021/12/16 06:41:10;;;;;;;19.13;17.35;;;;;;;6.98;85.02;100543.09;4997070;28;104028;-67
2021/12/16 06:43:41;;;;;;;18.83;17.10;;;;;;;7.10;85.14;100542.75;4997001;28;103319;-68
2021/12/16 06:46:14;;;;;;;22.20;19.90;;;;;;;6.04;88.09;100550.88;4997170;28;102879;-67
2021/12/16 06:48:46;;;;;;;17.02;15.43;;;;;;;6.85;87.57;100550.44;5000822;27;102873;-68
2021/12/16 06:51:21;;;;;;;16.10;14.60;;;;;;;7.21;85.49;100545.91;5002661;28;103336;-68
2021/12/16 06:53:53;;;;;;;19.37;17.47;;;;;;;7.13;84.28;100547.03;5000840;28;104175;-68
2021/12/16 06:56:26;;;;;;;16.45;14.88;;;;;;;7.30;83.76;100555.28;5002727;28;102903;-66
2021/12/16 06:59:05;;;;;;;17.63;16.03;;;;;;;7.33;82.43;100560.44;5012896;27;102907;-67
2021/12/16 07:01:41;;;;;;;17.92;16.25;;;;;;;7.09;85.17;100561.19;4992234;27;103522;-67
2021/12/16 07:04:13;;;;;;;17.03;15.43;;;;;;;7.23;84.60;100559.88;5010959;27;103310;-68
2021/12/16 07:06:42;;;;;;;20.13;18.23;;;;;;;7.23;82.90;100564.25;4995455;28;102602;-68
2021/12/16 07:09:17;;;;;;;19.70;17.80;;;;;;;6.81;84.47;100561.09;4998727;28;102935;-67
2021/12/16 07:11:56;;;;;;;17.83;16.13;;;;;;;7.19;85.03;100574.00;4998702;28;104361;-67
2021/12/16 07:14:35;;;;;;;17.33;15.73;;;;;;;7.43;83.73;100568.03;5005829;28;103235;-66
2021/12/16 07:17:07;;;;;;;21.42;19.27;;;;;;;6.85;83.75;100581.09;5008306;28;103120;-67
2021/12/16 07:19:40;;;;;;;19.95;17.95;;;;;;;6.79;86.53;100590.03;5006296;28;103774;-67
2021/12/16 07:22:09;;;;;;;17.93;16.33;;;;;;;7.24;84.63;100571.25;5006496;27;103077;-65
2021/12/16 07:24:38;;;;;;;18.80;17.00;;;;;;;7.19;84.43;100571.38;5006158;28;103008;-65
2021/12/16 07:27:07;;;;;;;16.95;15.25;;;;;;;7.39;83.72;100571.66;5008549;27;102763;-67
2021/12/16 07:29:35;;;;;;;17.73;16.13;;;;;;;7.53;83.10;100574.72;5007719;28;102946;-67
2021/12/16 07:32:04;;;;;;;18.60;16.80;;;;;;;7.35;83.43;100577.94;5002147;28;104157;-67
2021/12/16 07:34:32;;;;;;;16.80;15.30;;;;;;;7.44;83.67;100579.38;5008567;28;103339;-67
2021/12/16 07:37:04;;;;;;;18.75;16.95;;;;;;;7.44;82.88;100576.75;5006090;28;102652;-67
2021/12/16 07:39:38;;;;;;;17.23;15.60;;;;;;;7.47;82.71;100580.16;5003334;28;102936;-67
2021/12/16 07:42:08;;;;;;;18.58;16.77;;;;;;;7.41;83.02;100588.22;5002418;28;104132;-68
2021/12/16 07:44:36;;;;;;;18.17;16.38;;;;;;;7.40;83.46;100589.16;5004421;28;103754;-68
2021/12/16 07:47:06;;;;;;;19.10;17.27;;;;;;;7.28;83.31;100586.88;5004797;28;102754;-65
2021/12/16 07:49:40;;;;;;;18.30;16.48;;;;;;;7.37;83.67;100589.25;5007521;28;103077;-65
2021/12/16 07:52:12;;;;;;;16.92;15.30;;;;;;;7.22;83.79;100591.44;5004173;28;104647;-65
2021/12/16 07:54:41;;;;;;;18.83;17.00;;;;;;;7.15;84.90;100588.16;5005716;28;104143;-65
2021/12/16 07:57:09;;;;;;;15.82;14.32;;;;;;;7.37;84.17;100594.50;5004890;27;102955;-65
2021/12/16 07:59:38;;;;;;;17.45;15.65;;;;;;;7.61;83.00;100592.06;5005130;27;104813;-65
2021/12/16 08:02:11;;;;;;;19.20;17.38;;;;;;;7.47;81.88;100605.59;5000720;27;103313;-65
2021/12/16 08:04:42;;;;;;;16.92;15.23;;;;;;;7.58;83.02;100604.38;5008572;28;103233;-65
2021/12/16 08:07:14;;;;;;;19.45;17.65;;;;;;;7.28;82.84;100609.69;5007538;27;103020;-65
2021/12/16 08:09:43;;;;;;;17.38;15.75;;;;;;;7.55;83.12;100604.47;5009582;28;102919;-64
2021/12/16 08:12:15;;;;;;;19.15;17.27;;;;;;;7.41;83.54;100606.63;5006504;28;103203;-65
2021/12/16 08:14:45;;;;;;;20.52;18.50;;;;;;;6.67;85.54;100615.78;5008233;28;103202;-65
2021/12/16 08:17:14;;;;;;;17.88;16.17;;;;;;;7.30;84.82;100613.13;5007189;28;104466;-65
2021/12/16 08:19:42;;;;;;;17.98;16.23;;;;;;;7.55;82.92;100625.50;5009581;27;103116;-65
2021/12/16 08:22:12;;;;;;;21.95;19.60;;;;;;;6.26;88.21;100638.69;5005258;28;103214;-64
2021/12/16 08:24:40;;;;;;;18.45;16.65;;;;;;;6.93;87.33;100629.91;5006373;28;103242;-65
2021/12/16 08:27:08;;;;;;;19.02;17.13;;;;;;;7.34;85.11;100628.78;5008542;28;103177;-68
2021/12/16 08:29:37;;;;;;;20.40;18.30;;;;;;;7.34;83.69;100626.16;5008773;28;104222;-68
2021/12/16 08:32:06;;;;;;;21.93;19.53;;;;;;;6.70;86.39;100634.09;5004302;28;104074;-68
2021/12/16 08:34:37;;;;;;;16.52;14.93;;;;;;;7.28;85.73;100635.97;5002355;28;103191;-68
2021/12/16 08:37:06;;;;;;;20.30;18.33;;;;;;;6.71;85.88;100639.28;5013555;28;102924;-68
2021/12/16 08:39:37;;;;;;;22.13;19.90;;;;;;;6.33;89.60;100636.78;5008519;28;102926;-68
2021/12/16 08:42:09;;;;;;;22.20;19.90;;;;;;;6.31;89.70;100643.84;5009007;27;103255;-68
2021/12/16 08:44:38;;;;;;;24.63;20.00;;;;;;;6.04;91.49;100642.72;5008814;27;103312;-68
2021/12/16 08:47:10;;;;;;;20.30;18.25;;;;;;;6.62;88.68;100643.94;5007935;28;102805;-67
2021/12/16 08:49:39;;;;;;;20.85;18.65;;;;;;;6.81;86.64;100646.03;5007885;28;103958;-68
2021/12/16 08:52:10;;;;;;;20.35;18.30;;;;;;;6.65;88.53;100649.13;5006571;28;103237;-68
2021/12/16 08:54:40;;;;;;;18.38;16.52;;;;;;;7.29;86.44;100649.09;5011042;28;103261;-68
2021/12/16 08:57:08;;;;;;;17.98;16.27;;;;;;;7.58;84.81;100640.34;5010126;27;103084;-67
2021/12/16 08:59:40;;;;;;;21.05;18.88;;;;;;;6.53;88.29;100644.16;5005907;28;102903;-68
2021/12/16 09:02:08;;;;;;;20.23;18.15;;;;;;;6.67;88.62;100648.16;5007697;27;103235;-65
2021/12/16 09:04:39;;;;;;;21.33;19.13;;;;;;;6.51;88.68;100659.97;5006808;28;103098;-65
2021/12/16 09:07:11;;;;;;;21.80;19.50;;;;;;;5.79;92.37;100659.88;5001300;28;103024;-65
2021/12/16 09:09:43;;;;;;;17.25;15.63;;;;;;;6.95;89.49;100659.69;5008704;27;103083;-65
2021/12/16 09:12:26;;;;;;;21.30;19.17;;;;;;;6.38;89.41;100672.53;5004311;27;103258;-65
2021/12/16 09:14:55;;;;;;;23.80;20.02;;;;;;;6.13;92.13;100665.25;5008419;28;103156;-65
2021/12/16 09:17:23;;;;;;;20.92;18.83;;;;;;;6.32;91.75;100670.03;5009183;27;102682;-65
2021/12/16 09:19:54;;;;;;;21.35;19.25;;;;;;;6.22;92.29;100675.56;5004869;28;102694;-65
2021/12/16 09:22:24;;;;;;;19.25;17.40;;;;;;;6.72;91.15;100676.94;5011701;28;103988;-64
2021/12/16 09:24:56;;;;;;;18.17;16.48;;;;;;;7.36;87.92;100673.44;5009003;28;103284;-65
2021/12/16 09:27:26;;;;;;;17.07;15.50;;;;;;;7.66;85.75;100679.59;5006931;28;102670;-68
2021/12/16 09:29:55;;;;;;;18.98;17.17;;;;;;;7.66;84.06;100676.97;5008556;28;103921;-67
2021/12/16 09:32:27;;;;;;;17.80;16.05;;;;;;;7.70;84.48;100676.81;5012475;28;103341;-68
2021/12/16 09:34:55;;;;;;;17.58;15.88;;;;;;;7.87;83.94;100684.22;5003683;27;102982;-67
2021/12/16 09:37:26;;;;;;;20.65;18.58;;;;;;;7.80;83.67;100678.28;5009255;28;102876;-68
2021/12/16 09:39:55;;;;;;;18.83;17.02;;;;;;;7.94;83.50;100675.22;5010456;28;102666;-67
2021/12/16 09:42:26;;;;;;;21.27;19.05;;;;;;;7.42;83.92;100682.00;5012669;28;104056;-68
2021/12/16 09:44:56;;;;;;;19.73;17.83;;;;;;;7.56;84.50;100685.13;5011235;28;103286;-67
2021/12/16 09:47:27;;;;;;;19.08;17.23;;;;;;;7.70;83.34;100686.47;5012654;28;102674;-68
2021/12/16 09:49:56;;;;;;;16.75;15.15;;;;;;;8.03;83.37;100683.69;5007172;28;102714;-68
2021/12/16 09:52:24;;;;;;;19.65;17.65;;;;;;;7.92;82.06;100677.03;5016515;27;103276;-68
2021/12/16 09:54:52;;;;;;;19.30;17.42;;;;;;;7.97;82.09;100680.41;5009667;28;103202;-68
2021/12/16 09:57:24;;;;;;;19.45;17.55;;;;;;;7.97;82.00;100689.13;5008797;28;102861;-67
2021/12/16 09:59:52;;;;;;;19.97;18.07;;;;;;;7.74;81.47;100688.13;5011659;28;102977;-68
2021/12/16 10:02:22;;;;;;;17.77;16.05;;;;;;;7.61;84.76;100689.41;5006125;28;103221;-68
2021/12/16 10:04:50;;;;;;;15.02;13.57;;;;;;;8.19;82.80;100692.00;5010492;28;103384;-68
2021/12/16 10:07:24;;;;;;;17.20;15.50;;;;;;;8.32;81.24;100688.09;5011061;28;103131;-69
2021/12/16 10:09:55;;;;;;;18.30;16.48;;;;;;;8.33;80.40;100694.22;5014524;28;102910;-66
2021/12/16 10:12:29;;;;;;;20.23;18.13;;;;;;;7.77;81.21;100695.94;5010437;27;104490;-66
2021/12/16 10:15:06;;;;;;;19.45;17.35;;;;;;;6.98;86.24;100698.16;5009405;28;103263;-66
2021/12/16 10:17:35;;;;;;;20.23;18.23;;;;;;;6.69;87.30;100692.78;5012374;28;102647;-66
2021/12/16 10:20:12;;;;;;;16.95;15.27;;;;;;;7.34;86.35;100688.41;5014872;28;103578;-66
2021/12/16 10:22:42;;;;;;;16.60;15.00;;;;;;;7.85;83.00;100681.63;5010289;27;103225;-66
2021/12/16 10:25:24;;;;;;;16.90;15.40;;;;;;;8.08;81.64;100675.66;5006117;28;103222;-66
2021/12/16 10:27:57;;;;;;;18.00;16.25;;;;;;;7.64;84.34;100677.00;5009674;28;103917;-68
2021/12/16 10:30:26;;;;;;;17.70;15.95;;;;;;;8.02;82.58;100678.50;5008492;27;104034;-68
2021/12/16 10:32:55;;;;;;;19.70;17.70;;;;;;;8.01;81.12;100672.34;5008528;28;103250;-67
2021/12/16 10:35:29;;;;;;;20.33;18.13;;;;;;;7.48;83.90;100681.84;5012672;28;104109;-67
2021/12/16 10:38:00;;;;;;;21.00;18.80;;;;;;;6.93;85.60;100684.28;5011194;28;102904;-68
2021/12/16 10:40:33;;;;;;;20.02;18.08;;;;;;;7.37;84.85;100686.56;5013367;28;102645;-67
2021/12/16 10:43:07;;;;;;;20.73;18.63;;;;;;;6.92;85.83;100688.66;5011880;27;103334;-67
2021/12/16 10:45:38;;;;;;;18.98;17.08;;;;;;;7.70;84.14;100689.97;5009019;28;103187;-67
2021/12/16 10:48:12;;;;;;;17.48;15.70;;;;;;;8.07;83.15;100684.47;5010612;28;102934;-67
2021/12/16 10:50:53;;;;;;;16.65;15.05;;;;;;;8.37;81.82;100691.44;5004245;27;104028;-67
2021/12/16 10:53:49;;;;;;;17.02;15.35;;;;;;;7.79;82.07;100692.34;5008792;28;103591;-65
2021/12/16 10:56:22;;;;;;;17.17;15.57;;;;;;;8.19;81.73;100692.00;5007560;28;103340;-64
2021/12/16 10:58:57;;;;;;;18.92;16.98;;;;;;;7.31;84.35;100694.59;5012249;27;102913;-64
2021/12/16 11:01:44;;;;;;;16.58;15.05;;;;;;;7.94;82.79;100698.94;5009267;27;102676;-64
2021/12/16 11:04:18;;;;;;;15.70;14.10;;;;;;;8.32;80.56;100687.22;5007800;28;103703;-65
2021/12/16 11:06:48;;;;;;;18.85;16.95;;;;;;;7.93;81.04;100684.03;5006782;28;103246;-64
2021/12/16 11:09:42;;;;;;;16.70;15.10;;;;;;;8.23;81.14;100687.47;5010024;28;102919;-64
2021/12/16 11:12:27;;;;;;;16.65;15.05;;;;;;;8.50;79.84;100687.50;5012389;28;103267;-67
2021/12/16 11:15:02;;;;;;;18.33;16.45;;;;;;;8.23;79.10;100684.84;5012392;27;103054;-64
2021/12/16 11:17:33;;;;;;;15.43;13.93;;;;;;;8.55;79.34;100693.47;5012688;28;103240;-64
2021/12/16 11:20:08;;;;;;;17.73;16.02;;;;;;;8.57;78.46;100689.00;5005861;28;102763;-64
2021/12/16 11:22:38;;;;;;;13.55;12.32;;;;;;;8.84;79.13;100675.84;5009758;28;102638;-67
2021/12/16 11:25:17;;;;;;;18.75;16.80;;;;;;;8.56;78.74;100687.28;5008704;28;103232;-67
2021/12/16 11:27:49;;;;;;;19.42;17.52;;;;;;;8.07;79.48;100685.34;5012793;27;103183;-67
2021/12/16 11:30:36;;;;;;;19.33;17.42;;;;;;;7.85;80.91;100691.28;5003168;28;102765;-67
2021/12/16 11:33:10;;;;;;;17.80;16.10;;;;;;;8.20;80.62;100688.44;5004350;28;102948;-67
2021/12/16 11:35:59;;;;;;;15.37;13.87;;;;;;;8.72;79.45;100687.66;5008707;28;103287;-64
2021/12/16 11:38:33;;;;;;;15.07;13.63;;;;;;;8.99;79.06;100691.09;5008037;28;104167;-64
2021/12/16 11:41:12;;;;;;;15.23;13.82;;;;;;;9.13;78.53;100688.84;5010199;28;102734;-64
2021/12/16 11:44:04;;;;;;;17.50;15.80;;;;;;;9.13;77.45;100694.13;5006643;28;102881;-64
2021/12/16 11:46:38;;;;;;;18.13;16.33;;;;;;;8.97;78.09;100685.03;5006143;27;103268;-64
2021/12/16 11:49:26;;;;;;;15.70;14.23;;;;;;;9.21;77.42;100681.53;4997191;28;103174;-64
2021/12/16 11:52:01;;;;;;;17.60;15.80;;;;;;;8.88;77.81;100680.94;5011571;28;102709;-64
2021/12/16 11:54:33;;;;;;;15.40;13.97;;;;;;;9.09;78.52;100681.97;5005190;28;103258;-64
2021/12/16 11:57:10;;;;;;;14.55;13.25;;;;;;;9.31;77.01;100682.94;5009006;28;103509;-66
2021/12/16 11:59:41;;;;;;;17.35;15.68;;;;;;;9.24;75.96;100671.72;5002963;28;103233;-64
2021/12/16 12:02:24;;;;;;;14.70;13.30;;;;;;;9.44;76.40;100676.28;5004146;28;104102;-67
2021/12/16 12:04:53;;;;;;;18.47;16.60;;;;;;;8.99;77.25;100672.66;5005207;28;102710;-67
2021/12/16 12:07:21;;;;;;;17.10;15.43;;;;;;;9.26;77.06;100677.81;5007301;27;103304;-66
2021/12/16 12:09:53;;;;;;;16.27;14.77;;;;;;;9.29;77.38;100668.94;5009159;28;103195;-64
2021/12/16 12:12:43;;;;;;;15.68;14.20;;;;;;;9.42;76.81;100664.94;5003967;28;103051;-67
2021/12/16 12:15:15;;;;;;;15.68;14.27;;;;;;;9.60;75.85;100664.25;5011808;27;103683;-67
2021/12/16 12:17:49;;;;;;;14.13;12.83;;;;;;;9.62;76.28;100662.41;5001798;28;103338;-66
2021/12/16 12:20:19;;;;;;;18.08;16.27;;;;;;;9.14;78.16;100658.94;5007065;28;103656;-67
2021/12/16 12:22:51;;;;;;;18.07;16.17;;;;;;;9.34;77.21;100656.44;5006507;28;102666;-67
2021/12/16 12:25:20;;;;;;;16.95;15.35;;;;;;;9.55;76.62;100652.13;5005855;27;102724;-66
2021/12/16 12:27:48;;;;;;;17.65;15.88;;;;;;;9.33;76.67;100652.06;5004319;28;103036;-66
2021/12/16 12:30:18;;;;;;;17.92;16.13;;;;;;;9.34;76.99;100651.16;4998581;28;103467;-66
2021/12/16 12:32:51;;;;;;;17.10;15.43;;;;;;;9.47;76.08;100651.56;5006242;28;102900;-63
2021/12/16 12:35:24;;;;;;;17.52;15.82;;;;;;;9.26;77.01;100638.25;5004868;28;103605;-63
2021/12/16 12:37:55;;;;;;;17.27;15.57;;;;;;;9.46;76.53;100640.13;5003208;28;104175;-63
2021/12/16 12:40:31;;;;;;;13.50;12.25;;;;;;;9.78;75.92;100631.88;5005147;28;103825;-63
2021/12/16 12:43:02;;;;;;;15.13;13.73;;;;;;;9.91;75.40;100633.09;5007188;28;102746;-63
2021/12/16 12:45:37;;;;;;;16.58;14.98;;;;;;;9.98;74.54;100628.44;5009210;28;102782;-63
2021/12/16 12:48:11;;;;;;;17.58;15.85;;;;;;;9.45;75.00;100633.16;5006463;28;103165;-63
2021/12/16 12:50:45;;;;;;;14.70;13.30;;;;;;;9.77;75.76;100630.16;5004997;28;104039;-63
2021/12/16 12:53:17;;;;;;;19.38;17.40;;;;;;;8.81;76.92;100636.41;5000337;27;103270;-63
2021/12/16 12:55:46;;;;;;;17.42;15.77;;;;;;;9.40;75.81;100627.22;5000045;28;103096;-65
2021/12/16 12:58:16;;;;;;;18.52;16.67;;;;;;;9.40;76.42;100624.56;5006431;28;103242;-66
2021/12/16 13:00:49;;;;;;;18.47;16.53;;;;;;;9.41;76.32;100634.19;5011417;27;103181;-64
2021/12/16 13:03:29;;;;;;;17.27;15.67;;;;;;;9.46;76.63;100639.31;5003571;28;103087;-67
2021/12/16 13:06:00;;;;;;;20.27;18.25;;;;;;;8.73;77.08;100641.91;5002175;28;102683;-63
2021/12/16 13:08:37;;;;;;;17.65;15.85;;;;;;;8.90;78.49;100649.28;5008439;28;104149;-63
2021/12/16 13:11:09;;;;;;;18.40;16.60;;;;;;;8.74;79.61;100648.91;5009956;28;103319;-64
2021/12/16 13:13:44;;;;;;;18.85;16.98;;;;;;;8.80;79.32;100647.84;5008184;28;103000;-63
2021/12/16 13:16:37;;;;;;;20.20;17.45;;;;;;;8.69;78.83;100651.72;5008513;28;102850;-66